Airfield :
LOGIN :

Register | Disclaimer

   EN    FR    IT 

 










Legend :    VFR   Marginal VFR   IFR   Intensive IFR   Very Intensive IFR
Visi :
Ceiling :
>= 8 km
>= 3000ft
5 to 8 km
1000 to 3000 ft
1500m to 5 km
500 to 1000 ft
800 to 1500m
200 to 500 ft
< 800m
< 200 ft
Symbols :   Thunderstorms  Fog  Heavy snow  Heavy precipitations  Wind > 20 kt
SIGMETs :     Misc.  Thunderstorms  Icing  Turbulence  Mountain Waves  Volcanic Ashes






- Airport Elevation : 202 ft
- IATA code : LGW


EGKK - London Gatwick

CURRENT METAR :
  • 021150Z 23012KT 180V250 9999 FEW038 20/09 Q1018

EXPIRED METARs :
  • 021120Z 21009KT 9999 FEW040 20/09 Q1019
  • 021050Z 21010KT 170V260 9999 FEW042 19/08 Q1019
  • 021020Z 21011KT 180V250 9999 FEW042 18/08 Q1019
  • 020950Z 22011KT 190V250 9999 FEW044 19/08 Q1019
  • 020920Z 23011KT 190V250 9999 FEW041 18/07 Q1019

TAF TAF EGKK
Valid from the 02 at 12:00 until the 03 at 18:00 UTC


021054Z 0212/0318 21013KT 9999 SCT045
PROB30
TEMPO 0217/0221 4000 +SHRA
PROB30
TEMPO 0312/0318 8000 SHRA
BECMG 0315/0318 29006KT



MET'MAP, your aeronautical weather chart ! - Copyright ORBIFLY December 2007 - Disclaimer

ORBIFLY MET'MAP TEAM :

Programming & Development : Alexandra Zaïnal
Original concept : Baudouin d'Aumeries
Technical & hardware support : Manuel Goepfert
Assistance : Marc-Olivier Méhu




SOURCES & CREDITS :

   NOAA